Time;durP1;ratioP1;P1;durP2;ratioP2;P2;SDS_P1;SDS_P2;PMS_P1;PMS_P2;Temp;Humidity;BMP_temperature;BMP_pressure;BME280_temperature;BME280_humidity;BME280_pressure;Samples;Min_cycle;Max_cycle;Signal;HPM_P1;HPM_P2
2021/07/10 00:00:12;;;;;;;12.10;10.82;;;18.00;94.20;;;;;;5013317;28;20191;-65
2021/07/10 00:02:38;;;;;;;13.10;10.63;;;18.00;94.40;;;;;;5025329;28;20029;-65
2021/07/10 00:05:04;;;;;;;13.65;11.60;;;18.00;94.50;;;;;;5020699;28;20068;-64
2021/07/10 00:07:30;;;;;;;14.40;11.00;;;17.90;94.50;;;;;;5007218;28;20100;-65
2021/07/10 00:09:55;;;;;;;13.35;11.15;;;17.90;94.60;;;;;;5020940;28;20017;-64
2021/07/10 00:12:21;;;;;;;12.85;11.02;;;17.90;94.70;;;;;;5014134;28;20026;-64
2021/07/10 00:14:46;;;;;;;18.08;12.35;;;17.90;94.70;;;;;;5009105;28;20528;-65
2021/07/10 00:17:12;;;;;;;16.88;12.35;;;17.90;94.90;;;;;;5010324;28;20025;-65
2021/07/10 00:19:38;;;;;;;14.13;12.55;;;17.80;94.90;;;;;;5012443;28;20057;-65
2021/07/10 00:22:03;;;;;;;14.70;12.43;;;17.70;94.90;;;;;;5016218;28;20449;-64
2021/07/10 00:24:31;;;;;;;18.63;13.32;;;17.70;95.10;;;;;;5014108;28;20095;-65
2021/07/10 00:26:58;;;;;;;15.60;12.95;;;17.70;95.20;;;;;;5017704;28;20034;-65
2021/07/10 00:29:23;;;;;;;16.08;13.70;;;17.70;95.40;;;;;;5016517;28;20042;-65
2021/07/10 00:31:49;;;;;;;17.10;13.48;;;17.60;95.40;;;;;;5014728;28;20018;-65
2021/07/10 00:34:14;;;;;;;18.45;14.27;;;17.60;95.40;;;;;;5009619;28;20021;-65
2021/07/10 00:36:40;;;;;;;16.67;14.10;;;17.60;95.60;;;;;;5007984;28;20758;-65
2021/07/10 00:39:05;;;;;;;20.52;14.40;;;17.50;95.70;;;;;;5012623;28;20080;-66
2021/07/10 00:41:31;;;;;;;15.32;13.73;;;17.60;95.70;;;;;;5014430;28;20056;-66
2021/07/10 00:43:56;;;;;;;15.05;13.45;;;17.50;95.70;;;;;;5013323;28;20385;-66
2021/07/10 00:46:22;;;;;;;15.43;13.60;;;17.50;95.60;;;;;;5007857;28;20776;-63
2021/07/10 00:48:48;;;;;;;19.20;14.98;;;17.50;95.60;;;;;;5006201;28;20042;-64
2021/07/10 00:51:14;;;;;;;17.20;14.75;;;17.50;95.70;;;;;;5008008;28;20033;-64
2021/07/10 00:53:40;;;;;;;18.77;14.98;;;17.50;95.80;;;;;;5008950;28;20231;-64
2021/07/10 00:56:05;;;;;;;19.27;15.55;;;17.50;95.80;;;;;;5014716;28;20065;-64
2021/07/10 00:58:32;;;;;;;18.90;15.13;;;17.50;95.90;;;;;;5009575;28;20045;-64
2021/07/10 01:00:58;;;;;;;17.92;15.38;;;17.50;95.90;;;;;;5011756;28;20512;-65
2021/07/10 01:03:23;;;;;;;18.88;15.75;;;17.50;95.90;;;;;;5007565;28;20036;-65
2021/07/10 01:05:49;;;;;;;19.48;16.48;;;17.40;96.00;;;;;;5005805;28;20049;-65
2021/07/10 01:08:14;;;;;;;19.55;16.52;;;17.40;96.10;;;;;;5026247;28;20086;-65
2021/07/10 01:10:40;;;;;;;22.40;16.52;;;17.30;96.10;;;;;;5025393;28;20105;-65
2021/07/10 01:13:05;;;;;;;20.10;17.95;;;17.30;96.10;;;;;;5024817;28;20220;-65
2021/07/10 01:15:31;;;;;;;21.48;17.30;;;17.30;96.10;;;;;;4999320;28;20204;-66
2021/07/10 01:17:57;;;;;;;23.70;18.20;;;17.30;96.10;;;;;;5030140;28;20452;-65
2021/07/10 01:20:23;;;;;;;21.85;16.30;;;17.30;96.30;;;;;;5012580;28;20179;-65
2021/07/10 01:22:49;;;;;;;24.20;17.60;;;17.20;96.30;;;;;;5011984;28;20048;-65
2021/07/10 01:25:17;;;;;;;23.75;18.10;;;17.20;96.30;;;;;;5011882;28;20041;-65
2021/07/10 01:27:43;;;;;;;20.63;18.02;;;17.20;96.30;;;;;;5019865;28;20048;-65
2021/07/10 01:30:13;;;;;;;21.88;18.95;;;17.20;96.40;;;;;;5026634;28;20025;-65
2021/07/10 01:32:39;;;;;;;21.70;17.83;;;17.10;96.50;;;;;;5020672;28;20038;-65
2021/07/10 01:35:05;;;;;;;20.92;18.60;;;17.10;96.50;;;;;;5015382;28;20026;-64
2021/07/10 01:37:31;;;;;;;23.73;18.50;;;17.10;96.40;;;;;;5017725;28;20034;-65
2021/07/10 01:39:56;;;;;;;22.83;18.30;;;17.10;96.50;;;;;;5020123;28;20407;-65
2021/07/10 01:42:22;;;;;;;29.95;18.92;;;17.10;96.60;;;;;;5015950;28;20611;-65
2021/07/10 01:44:49;;;;;;;26.10;19.13;;;17.10;96.60;;;;;;5018173;28;20036;-65
2021/07/10 01:47:15;;;;;;;24.55;18.73;;;17.00;96.70;;;;;;5022958;28;20035;-65
2021/07/10 01:49:40;;;;;;;23.52;19.40;;;17.10;96.60;;;;;;5020302;28;20034;-65
2021/07/10 01:52:06;;;;;;;24.98;19.15;;;17.00;96.50;;;;;;5021496;28;20030;-64
2021/07/10 01:54:32;;;;;;;21.67;18.23;;;17.00;96.50;;;;;;5010587;28;20452;-65
2021/07/10 01:56:57;;;;;;;23.85;19.25;;;17.00;96.50;;;;;;5017095;28;20511;-65
2021/07/10 01:59:23;;;;;;;27.60;19.17;;;17.00;96.50;;;;;;5010722;28;20018;-64
2021/07/10 02:01:49;;;;;;;22.92;19.13;;;16.90;96.50;;;;;;5019569;28;20029;-64
2021/07/10 02:04:18;;;;;;;24.30;19.02;;;16.90;96.60;;;;;;5010894;28;20446;-64
2021/07/10 02:06:44;;;;;;;26.02;18.77;;;16.90;96.60;;;;;;5022907;28;20041;-64
2021/07/10 02:09:09;;;;;;;27.67;20.55;;;16.90;96.70;;;;;;5028140;28;20060;-64
2021/07/10 02:11:36;;;;;;;24.75;19.35;;;16.80;96.80;;;;;;5020726;28;20125;-65
2021/07/10 02:14:01;;;;;;;27.98;20.45;;;16.80;96.80;;;;;;5020982;28;20030;-65
2021/07/10 02:16:27;;;;;;;24.05;20.02;;;16.80;96.80;;;;;;5020956;28;20025;-64
2021/07/10 02:18:52;;;;;;;24.92;20.60;;;16.70;96.90;;;;;;5018999;28;20033;-65
2021/07/10 02:21:18;;;;;;;28.73;21.95;;;16.80;97.00;;;;;;5017485;28;20037;-65
2021/07/10 02:23:43;;;;;;;25.48;20.92;;;16.70;97.10;;;;;;5014439;28;20030;-65
2021/07/10 02:26:09;;;;;;;28.08;21.38;;;16.80;97.10;;;;;;5026278;28;20025;-65
2021/07/10 02:28:34;;;;;;;26.35;20.85;;;16.70;97.10;;;;;;5019261;28;20502;-65
2021/07/10 02:31:00;;;;;;;26.83;21.50;;;16.60;97.20;;;;;;5015924;28;20515;-65
2021/07/10 02:33:25;;;;;;;25.83;20.90;;;16.70;97.30;;;;;;5016432;28;20025;-65
2021/07/10 02:35:51;;;;;;;25.88;21.33;;;16.70;97.30;;;;;;5012636;28;20044;-64
2021/07/10 02:38:17;;;;;;;26.83;21.85;;;16.70;97.20;;;;;;5014633;28;20515;-65
2021/07/10 02:40:42;;;;;;;29.27;22.92;;;16.70;97.20;;;;;;5024145;28;20041;-65
2021/07/10 02:43:08;;;;;;;30.63;21.40;;;16.60;97.20;;;;;;5027063;28;20104;-65
2021/07/10 02:45:33;;;;;;;28.73;22.10;;;16.70;97.20;;;;;;5016238;28;20459;-65
2021/07/10 02:47:59;;;;;;;26.17;20.60;;;16.70;97.30;;;;;;5010475;28;20434;-65
2021/07/10 02:50:25;;;;;;;28.95;21.67;;;16.70;97.30;;;;;;5017832;28;20570;-65
2021/07/10 02:52:53;;;;;;;31.02;20.42;;;16.70;97.20;;;;;;5014508;28;20021;-65
2021/07/10 02:55:19;;;;;;;27.98;20.73;;;16.70;97.30;;;;;;5013896;28;20033;-65
2021/07/10 02:57:44;;;;;;;24.55;20.00;;;16.60;97.30;;;;;;5021547;28;20380;-65
2021/07/10 03:00:15;;;;;;;31.17;21.52;;;16.60;97.40;;;;;;5019521;28;20048;-65
2021/07/10 03:02:41;;;;;;;30.55;22.55;;;16.60;97.40;;;;;;5019623;28;20437;-65
2021/07/10 03:05:07;;;;;;;26.60;21.38;;;16.70;97.30;;;;;;5018580;28;20109;-65
2021/07/10 03:07:34;;;;;;;32.92;22.35;;;16.60;97.30;;;;;;5009736;28;20044;-65
2021/07/10 03:09:59;;;;;;;27.10;21.80;;;16.60;97.20;;;;;;5020859;28;20375;-63
2021/07/10 03:12:25;;;;;;;27.25;20.77;;;16.60;97.30;;;;;;5020153;28;20108;-64
2021/07/10 03:14:50;;;;;;;27.58;21.25;;;16.50;97.30;;;;;;5013077;28;20062;-64
2021/07/10 03:17:16;;;;;;;26.33;21.77;;;16.50;97.30;;;;;;5016399;28;20024;-64
2021/07/10 03:19:41;;;;;;;29.00;22.80;;;16.50;97.40;;;;;;5026918;28;20112;-63
2021/07/10 03:22:07;;;;;;;27.67;22.40;;;16.50;97.30;;;;;;5017488;28;20038;-64
2021/07/10 03:24:32;;;;;;;25.52;21.38;;;16.50;97.40;;;;;;5012131;28;20044;-64
2021/07/10 03:26:58;;;;;;;28.95;22.77;;;16.40;97.50;;;;;;5009197;28;20037;-65
2021/07/10 03:29:23;;;;;;;29.73;21.27;;;16.40;97.50;;;;;;5014795;28;20052;-65
2021/07/10 03:31:49;;;;;;;25.38;21.60;;;16.40;97.50;;;;;;5027143;28;20437;-65
2021/07/10 03:34:15;;;;;;;32.38;22.17;;;16.40;97.40;;;;;;5009581;28;20499;-65
2021/07/10 03:36:40;;;;;;;28.90;21.75;;;16.30;97.50;;;;;;5029044;28;20108;-65
2021/07/10 03:39:06;;;;;;;30.00;23.05;;;16.40;97.50;;;;;;5024474;28;20060;-65
2021/07/10 03:41:31;;;;;;;30.00;22.13;;;16.40;97.50;;;;;;5028931;28;20040;-65
2021/07/10 03:43:57;;;;;;;27.30;22.55;;;16.40;97.40;;;;;;5011988;28;20088;-65
2021/07/10 03:46:22;;;;;;;31.52;23.23;;;16.40;97.40;;;;;;5022398;28;20033;-65
2021/07/10 03:48:48;;;;;;;27.45;23.48;;;16.60;97.50;;;;;;5015895;28;20034;-66
2021/07/10 03:51:13;;;;;;;26.77;21.60;;;16.50;97.40;;;;;;5021533;28;20062;-65
2021/07/10 03:53:39;;;;;;;26.33;21.73;;;16.40;97.40;;;;;;5008997;28;20048;-65
2021/07/10 03:56:04;;;;;;;32.28;22.77;;;16.40;97.40;;;;;;5022270;28;20032;-65
2021/07/10 03:58:30;;;;;;;25.88;21.90;;;16.50;97.40;;;;;;5019324;28;20546;-65
2021/07/10 04:00:55;;;;;;;31.17;22.25;;;16.50;97.40;;;;;;5017010;28;20104;-66
2021/07/10 04:03:21;;;;;;;28.00;22.20;;;16.40;97.30;;;;;;5007840;28;20029;-63
2021/07/10 04:05:46;;;;;;;29.67;23.48;;;16.40;97.40;;;;;;5011036;28;20037;-65
2021/07/10 04:08:12;;;;;;;29.70;23.85;;;16.40;97.40;;;;;;5008775;28;20029;-66
2021/07/10 04:10:38;;;;;;;26.85;21.85;;;16.50;97.40;;;;;;5006277;28;20087;-65
2021/07/10 04:13:03;;;;;;;27.08;20.92;;;16.50;97.70;;;;;;5010139;28;20024;-65
2021/07/10 04:15:29;;;;;;;28.08;21.92;;;16.50;97.70;;;;;;5008885;28;20052;-65
2021/07/10 04:17:54;;;;;;;30.17;22.05;;;16.50;97.40;;;;;;5017262;28;20048;-65
2021/07/10 04:20:20;;;;;;;25.88;20.23;;;16.60;97.40;;;;;;5016677;28;20033;-65
2021/07/10 04:22:46;;;;;;;27.73;21.23;;;16.60;97.30;;;;;;5008227;28;20040;-65
2021/07/10 04:25:17;;;;;;;27.92;21.50;;;16.70;97.20;;;;;;5009119;28;20046;-65
2021/07/10 04:27:44;;;;;;;30.15;22.00;;;16.70;97.10;;;;;;5021842;28;20761;-65
2021/07/10 04:30:12;;;;;;;88.15;49.78;;;16.70;97.20;;;;;;5023530;28;20036;-65
2021/07/10 04:32:38;;;;;;;94.10;49.78;;;16.80;97.20;;;;;;5024145;28;20029;-65
2021/07/10 04:35:04;;;;;;;51.58;32.15;;;16.80;97.10;;;;;;5020708;28;20033;-65
2021/07/10 04:37:30;;;;;;;79.72;45.63;;;16.80;97.10;;;;;;5019332;28;20029;-64
2021/07/10 04:39:55;;;;;;;106.97;60.83;;;17.00;96.90;;;;;;5008560;28;20040;-65
2021/07/10 04:42:21;;;;;;;71.28;44.13;;;16.90;96.90;;;;;;5012879;28;20125;-65
2021/07/10 04:44:47;;;;;;;83.05;49.13;;;17.00;96.70;;;;;;5008031;28;20484;-65
2021/07/10 04:47:13;;;;;;;69.32;41.17;;;17.10;96.50;;;;;;5015039;28;20030;-65
2021/07/10 04:49:38;;;;;;;47.25;31.00;;;17.30;96.40;;;;;;5015834;28;20084;-65
2021/07/10 04:52:04;;;;;;;36.15;27.02;;;17.40;96.00;;;;;;5012297;28;20389;-64
2021/07/10 04:54:30;;;;;;;47.25;27.60;;;17.50;95.90;;;;;;5013742;28;20113;-64
2021/07/10 04:56:55;;;;;;;31.80;23.15;;;17.50;95.60;;;;;;5030139;28;20029;-65
2021/07/10 04:59:21;;;;;;;38.10;24.42;;;17.70;95.30;;;;;;5020011;28;20030;-64
2021/07/10 05:02:07;;;;;;;41.78;27.85;;;17.80;95.30;;;;;;5015366;28;20030;-64
2021/07/10 05:04:32;;;;;;;29.95;21.13;;;17.20;95.00;;;;;;5024648;28;20067;-65
2021/07/10 05:06:58;;;;;;;37.90;29.98;;;17.90;95.00;;;;;;5018306;28;20500;-64
2021/07/10 05:09:23;;;;;;;109.30;76.82;;;18.00;94.80;;;;;;5026014;28;20040;-66
2021/07/10 05:11:49;;;;;;;109.75;81.25;;;18.00;94.80;;;;;;5026032;28;20026;-66
2021/07/10 05:14:15;;;;;;;133.50;99.32;;;18.10;94.70;;;;;;5012741;28;20457;-66
2021/07/10 05:16:41;;;;;;;133.85;96.45;;;18.20;94.50;;;;;;5020518;28;20026;-65
2021/07/10 05:19:06;;;;;;;108.03;79.88;;;18.30;94.40;;;;;;5017880;28;20029;-65
2021/07/10 05:21:33;;;;;;;36.72;26.02;;;18.40;94.20;;;;;;5017107;28;20033;-65
2021/07/10 05:23:58;;;;;;;73.40;57.15;;;18.40;94.00;;;;;;5017299;28;20033;-64
2021/07/10 05:26:24;;;;;;;72.93;52.00;;;18.40;94.20;;;;;;5016684;28;20034;-65
2021/07/10 05:28:49;;;;;;;29.15;21.63;;;18.50;94.20;;;;;;5017595;28;20489;-64
2021/07/10 05:31:15;;;;;;;62.65;47.13;;;18.60;93.80;;;;;;5019253;28;20021;-64
2021/07/10 05:33:42;;;;;;;59.20;43.67;;;18.60;93.80;;;;;;5016783;28;20159;-65
2021/07/10 05:36:07;;;;;;;54.15;40.35;;;18.70;93.60;;;;;;5027662;28;20029;-65
2021/07/10 05:38:33;;;;;;;26.55;20.98;;;18.90;93.40;;;;;;5018150;28;20108;-64
2021/07/10 05:40:58;;;;;;;45.80;34.38;;;18.80;93.20;;;;;;5019489;28;20083;-65
2021/07/10 05:43:24;;;;;;;33.25;24.75;;;18.80;93.40;;;;;;5015088;28;20088;-64
2021/07/10 05:45:51;;;;;;;30.20;25.40;;;18.80;93.30;;;;;;5019150;28;20030;-64
2021/07/10 05:48:17;;;;;;;36.33;28.33;;;18.80;93.60;;;;;;5011206;28;20480;-65
2021/07/10 05:50:42;;;;;;;34.38;27.25;;;19.00;93.50;;;;;;5014703;28;20114;-64
2021/07/10 05:53:08;;;;;;;26.33;21.83;;;19.00;93.50;;;;;;5023316;28;20108;-65
2021/07/10 05:55:34;;;;;;;25.70;19.83;;;19.00;93.40;;;;;;5018619;28;20045;-65
2021/07/10 05:58:00;;;;;;;23.52;19.33;;;19.00;93.20;;;;;;5011407;28;20025;-65
2021/07/10 06:00:25;;;;;;;28.20;21.45;;;19.00;93.40;;;;;;5020318;28;20562;-64
2021/07/10 06:02:51;;;;;;;26.98;21.45;;;19.10;93.30;;;;;;5021911;28;20057;-65
2021/07/10 06:05:16;;;;;;;19.00;16.95;;;19.10;93.40;;;;;;5019494;28;20065;-64
2021/07/10 06:07:42;;;;;;;22.75;17.55;;;19.20;93.20;;;;;;5011062;28;20510;-65
2021/07/10 06:10:09;;;;;;;21.65;17.98;;;19.20;93.00;;;;;;5019469;28;20013;-65
2021/07/10 06:12:35;;;;;;;22.38;17.67;;;19.20;93.00;;;;;;5014204;28;20041;-65
2021/07/10 06:15:03;;;;;;;27.35;19.58;;;20.00;93.20;;;;;;5010714;28;20022;-65
2021/07/10 06:17:29;;;;;;;21.92;15.10;;;19.50;93.00;;;;;;5010646;28;20049;-64
2021/07/10 06:19:54;;;;;;;19.02;15.80;;;19.60;92.60;;;;;;5020600;28;20488;-64
2021/07/10 06:22:20;;;;;;;25.45;17.58;;;19.60;92.60;;;;;;5026970;28;20033;-65
2021/07/10 06:24:45;;;;;;;29.23;22.70;;;19.70;92.50;;;;;;5020340;28;20029;-65
2021/07/10 06:27:11;;;;;;;22.20;18.38;;;19.80;91.90;;;;;;5012585;28;20116;-65
2021/07/10 06:29:36;;;;;;;39.10;26.50;;;19.90;92.00;;;;;;5011147;28;20061;-65
2021/07/10 06:32:02;;;;;;;82.85;59.63;;;19.90;91.70;;;;;;5017617;28;20104;-66
2021/07/10 06:34:28;;;;;;;159.13;116.70;;;20.00;91.70;;;;;;5022793;28;20022;-65
2021/07/10 06:36:54;;;;;;;102.30;76.05;;;20.20;91.60;;;;;;5025945;28;20434;-65
2021/07/10 06:39:20;;;;;;;55.38;41.67;;;20.30;91.40;;;;;;5026342;28;20086;-65
2021/07/10 06:41:46;;;;;;;72.95;54.75;;;20.30;91.10;;;;;;5028820;28;20025;-65
2021/07/10 06:44:12;;;;;;;83.38;60.80;;;20.10;91.70;;;;;;5029200;28;20025;-65
2021/07/10 06:46:37;;;;;;;28.42;24.13;;;20.30;91.10;;;;;;5029338;28;20029;-65
2021/07/10 06:49:03;;;;;;;77.97;57.40;;;20.40;91.00;;;;;;5021745;28;20030;-66
2021/07/10 06:51:29;;;;;;;47.30;36.60;;;20.30;91.30;;;;;;5017405;28;20200;-66
2021/07/10 06:53:54;;;;;;;46.60;35.60;;;20.40;91.20;;;;;;5015865;28;20037;-65
2021/07/10 06:56:20;;;;;;;70.72;53.03;;;20.50;91.30;;;;;;5019432;28;20034;-65
2021/07/10 06:58:45;;;;;;;24.65;20.90;;;20.50;91.00;;;;;;5018439;28;20428;-66
2021/07/10 07:01:11;;;;;;;56.80;39.45;;;20.50;90.60;;;;;;5019058;28;20044;-65
2021/07/10 07:03:37;;;;;;;25.48;20.92;;;20.50;90.80;;;;;;5014478;28;20040;-64
2021/07/10 07:06:03;;;;;;;25.95;20.02;;;20.40;90.40;;;;;;5023796;28;20034;-64
2021/07/10 07:08:29;;;;;;;28.45;22.60;;;20.40;90.70;;;;;;5022718;28;20120;-65
2021/07/10 07:10:54;;;;;;;28.30;23.48;;;20.60;90.60;;;;;;5026663;28;20501;-64
2021/07/10 07:13:20;;;;;;;23.83;18.08;;;20.30;90.80;;;;;;5030887;28;20560;-64
2021/07/10 07:15:45;;;;;;;52.33;39.90;;;20.40;90.80;;;;;;5031263;28;20125;-64
2021/07/10 07:18:12;;;;;;;25.42;20.33;;;20.30;91.20;;;;;;5014141;28;20042;-65
2021/07/10 07:20:38;;;;;;;69.78;54.22;;;20.30;90.80;;;;;;5025579;28;20507;-64
2021/07/10 07:23:03;;;;;;;48.38;41.58;;;20.40;90.90;;;;;;5020365;28;20025;-64
2021/07/10 07:25:30;;;;;;;45.60;38.60;;;20.50;90.50;;;;;;5015522;28;20022;-64
2021/07/10 07:27:56;;;;;;;27.17;22.58;;;20.80;89.80;;;;;;5025927;28;20116;-64
2021/07/10 07:30:21;;;;;;;70.68;56.20;;;20.90;89.50;;;;;;5016935;28;20113;-65
2021/07/10 07:32:47;;;;;;;24.67;20.77;;;21.20;89.70;;;;;;5027008;28;20476;-65
2021/07/10 07:35:13;;;;;;;59.80;52.17;;;21.00;88.90;;;;;;5029651;28;20041;-64
2021/07/10 07:37:39;;;;;;;71.95;61.85;;;21.30;89.40;;;;;;5019783;28;20022;-65
2021/07/10 07:40:05;;;;;;;52.22;43.72;;;21.50;88.40;;;;;;5015548;28;20038;-65
2021/07/10 07:42:31;;;;;;;29.10;25.17;;;21.70;85.80;;;;;;5012726;28;20057;-65
2021/07/10 07:44:56;;;;;;;24.00;17.90;;;21.90;84.90;;;;;;5016556;28;20514;-65
2021/07/10 07:47:22;;;;;;;66.75;54.33;;;22.10;84.70;;;;;;5023626;28;20389;-65
2021/07/10 07:49:48;;;;;;;27.98;23.65;;;22.20;85.10;;;;;;5012224;28;20091;-65
2021/07/10 07:52:14;;;;;;;82.45;66.80;;;22.20;84.20;;;;;;5021088;28;20017;-65
2021/07/10 07:54:39;;;;;;;44.05;36.00;;;22.30;83.00;;;;;;5018519;28;20036;-65
2021/07/10 07:57:05;;;;;;;21.35;16.40;;;22.30;82.40;;;;;;5010059;28;20495;-66
2021/07/10 07:59:31;;;;;;;47.65;41.53;;;22.30;81.30;;;;;;5009727;28;20033;-65
2021/07/10 08:01:56;;;;;;;29.73;24.98;;;22.30;82.20;;;;;;5019161;28;20504;-65
2021/07/10 08:04:22;;;;;;;22.98;19.17;;;22.50;80.40;;;;;;5023561;28;20033;-64
2021/07/10 08:06:47;;;;;;;20.92;16.48;;;22.70;79.70;;;;;;5026627;28;20048;-65
2021/07/10 08:09:13;;;;;;;22.60;18.83;;;22.70;79.80;;;;;;5027947;28;20082;-65
2021/07/10 08:11:39;;;;;;;17.63;14.05;;;22.90;79.10;;;;;;5012964;28;20060;-65
2021/07/10 08:14:04;;;;;;;23.83;18.70;;;22.60;78.70;;;;;;5024480;28;20108;-65
2021/07/10 08:16:30;;;;;;;17.85;13.90;;;22.80;79.10;;;;;;5028153;28;20028;-65
2021/07/10 08:18:56;;;;;;;16.60;13.73;;;22.60;78.40;;;;;;5012804;28;20088;-65
2021/07/10 08:21:21;;;;;;;26.58;22.02;;;22.40;79.00;;;;;;5010276;28;20447;-64
2021/07/10 08:23:47;;;;;;;16.98;10.75;;;22.50;79.70;;;;;;5026859;28;20163;-64
2021/07/10 08:26:13;;;;;;;20.17;15.52;;;22.60;77.30;;;;;;5020728;28;20374;-64
2021/07/10 08:28:39;;;;;;;16.25;12.00;;;22.80;79.60;;;;;;5013552;28;20342;-64
2021/07/10 08:31:04;;;;;;;13.80;11.05;;;23.00;76.90;;;;;;5009644;28;20080;-65
2021/07/10 08:33:30;;;;;;;15.18;10.40;;;23.30;75.90;;;;;;5018726;28;20119;-66
2021/07/10 08:35:56;;;;;;;11.05;8.57;;;23.30;74.50;;;;;;5009019;28;20176;-65
2021/07/10 08:38:21;;;;;;;15.95;9.80;;;23.30;73.20;;;;;;5025786;28;20025;-65
2021/07/10 08:40:49;;;;;;;14.45;11.32;;;23.30;73.10;;;;;;5018364;28;20484;-65
2021/07/10 08:43:14;;;;;;;10.20;8.20;;;23.50;73.10;;;;;;5007683;28;20400;-65
2021/07/10 08:45:40;;;;;;;14.52;8.80;;;23.60;71.70;;;;;;5007834;28;20034;-65
2021/07/10 08:48:06;;;;;;;21.58;16.90;;;23.40;68.90;;;;;;4989790;28;20232;-65
2021/07/10 08:50:32;;;;;;;21.85;16.13;;;23.50;71.20;;;;;;5008458;28;20511;-65
2021/07/10 08:52:57;;;;;;;15.55;10.48;;;23.50;72.70;;;;;;5011507;28;20473;-65
2021/07/10 08:55:23;;;;;;;17.50;9.77;;;23.50;73.50;;;;;;5005818;28;20036;-65
2021/07/10 08:57:50;;;;;;;17.60;12.38;;;23.30;75.10;;;;;;5006573;28;20492;-65
2021/07/10 09:00:21;;;;;;;13.07;10.88;;;23.70;74.80;;;;;;5021553;28;20255;-64
2021/07/10 09:02:49;;;;;;;11.82;9.27;;;23.80;74.00;;;;;;5015622;28;20031;-65
2021/07/10 09:05:15;;;;;;;16.58;10.68;;;23.90;71.10;;;;;;5014821;28;20048;-65
2021/07/10 09:08:19;;;;;;;15.90;11.05;;;24.10;73.60;;;;;;5020859;28;20117;-64
2021/07/10 09:10:47;;;;;;;13.60;10.93;;;24.00;72.50;;;;;;5016732;28;20601;-65
2021/07/10 09:13:12;;;;;;;16.40;10.15;;;24.00;72.00;;;;;;5015689;28;20122;-65
2021/07/10 09:15:38;;;;;;;13.75;10.07;;;23.90;73.30;;;;;;5019776;28;20116;-64
2021/07/10 09:18:11;;;;;;;13.52;10.25;;;24.10;74.80;;;;;;5014219;28;20022;-65
2021/07/10 09:20:37;;;;;;;15.18;12.65;;;24.10;72.30;;;;;;5023822;28;20022;-65
2021/07/10 09:23:04;;;;;;;27.90;24.60;;;24.20;74.20;;;;;;5019301;28;20502;-65
2021/07/10 09:25:32;;;;;;;19.85;15.00;;;24.30;73.00;;;;;;5018692;28;20177;-66
2021/07/10 09:27:59;;;;;;;14.32;10.10;;;24.50;71.20;;;;;;5015302;28;20052;-64
2021/07/10 09:30:35;;;;;;;26.40;22.55;;;24.50;71.00;;;;;;5013430;28;20046;-65
2021/07/10 09:33:09;;;;;;;25.42;20.60;;;24.50;69.90;;;;;;5018266;28;20030;-64
2021/07/10 09:35:46;;;;;;;33.72;29.50;;;24.70;70.80;;;;;;5022967;28;20068;-65
2021/07/10 09:38:20;;;;;;;20.25;14.98;;;24.80;70.70;;;;;;5023006;28;20550;-65
2021/07/10 09:41:01;;;;;;;11.50;7.80;;;24.80;71.00;;;;;;5017856;28;20042;-65
2021/07/10 09:43:28;;;;;;;14.80;12.27;;;24.60;70.60;;;;;;5022303;28;20041;-65
2021/07/10 09:45:54;;;;;;;12.70;10.13;;;24.70;69.90;;;;;;5023923;28;20033;-66
2021/07/10 09:48:19;;;;;;;14.15;12.63;;;24.80;70.20;;;;;;5027605;28;20033;-65
2021/07/10 09:50:45;;;;;;;18.45;13.73;;;24.80;72.30;;;;;;5023000;28;20472;-65
2021/07/10 09:53:23;;;;;;;11.25;10.10;;;25.00;69.70;;;;;;5024681;28;20029;-65
2021/07/10 09:55:49;;;;;;;14.65;13.15;;;24.90;69.80;;;;;;5017853;28;20056;-64
2021/07/10 09:58:31;;;;;;;16.00;13.88;;;25.00;70.30;;;;;;5014309;28;20087;-64
2021/07/10 10:00:57;;;;;;;15.25;12.38;;;24.70;70.70;;;;;;5024377;28;20259;-64
2021/07/10 10:03:32;;;;;;;15.52;11.35;;;24.90;68.60;;;;;;5018911;28;20116;-65
2021/07/10 10:06:00;;;;;;;13.00;9.23;;;24.70;69.10;;;;;;5019381;28;20064;-65
2021/07/10 10:08:34;;;;;;;13.10;11.80;;;24.80;69.10;;;;;;5002171;28;20096;-66
2021/07/10 10:10:59;;;;;;;13.00;7.88;;;24.30;72.00;;;;;;5021381;28;20056;-65
2021/07/10 10:13:25;;;;;;;13.10;8.35;;;24.40;72.30;;;;;;5020120;28;20092;-62
2021/07/10 10:15:51;;;;;;;10.85;8.57;;;24.40;70.40;;;;;;5015217;28;20112;-64
2021/07/10 10:18:19;;;;;;;19.55;16.08;;;24.60;69.50;;;;;;5020371;28;20108;-64
2021/07/10 10:20:44;;;;;;;14.20;9.38;;;24.50;72.10;;;;;;5015210;28;20076;-64
2021/07/10 10:23:10;;;;;;;13.30;10.00;;;24.40;70.90;;;;;;5015219;28;20045;-64
2021/07/10 10:25:36;;;;;;;13.40;12.00;;;24.50;70.80;;;;;;5022157;28;20041;-65
2021/07/10 10:28:03;;;;;;;13.88;9.30;;;24.50;70.70;;;;;;5019800;28;20670;-64
2021/07/10 10:30:29;;;;;;;12.05;9.25;;;24.80;69.20;;;;;;5015909;28;20021;-64
2021/07/10 10:32:54;;;;;;;12.60;8.73;;;24.60;69.90;;;;;;5017514;28;20546;-64
2021/07/10 10:35:20;;;;;;;12.35;8.90;;;24.90;69.70;;;;;;5018893;28;20097;-64
2021/07/10 10:37:46;;;;;;;14.60;10.18;;;25.00;69.80;;;;;;5021020;28;20040;-65
2021/07/10 10:40:16;;;;;;;12.05;9.75;;;25.00;68.30;;;;;;5016432;28;20037;-66
2021/07/10 10:42:45;;;;;;;13.25;9.25;;;24.40;69.80;;;;;;5023328;28;20029;-65
2021/07/10 10:45:11;;;;;;;15.32;8.77;;;24.60;70.10;;;;;;5034331;28;20029;-66
2021/07/10 10:47:41;;;;;;;9.45;7.95;;;24.80;70.40;;;;;;5016399;28;20205;-66
2021/07/10 10:50:34;;;;;;;11.18;8.50;;;25.10;68.90;;;;;;5016751;28;20037;-66
2021/07/10 10:53:00;;;;;;;11.73;8.30;;;25.30;67.50;;;;;;5018133;28;20084;-65
2021/07/10 10:55:28;;;;;;;16.05;8.57;;;25.50;67.80;;;;;;5021680;28;20232;-66
2021/07/10 10:57:55;;;;;;;29.17;24.23;;;25.50;63.90;;;;;;5018238;28;20314;-65
2021/07/10 11:00:23;;;;;;;10.50;7.90;;;25.70;64.20;;;;;;5016682;28;20100;-66
2021/07/10 11:02:48;;;;;;;13.65;8.60;;;25.80;66.20;;;;;;5013632;28;20026;-66
2021/07/10 11:05:14;;;;;;;10.98;6.85;;;26.10;61.60;;;;;;5016552;28;20022;-66
2021/07/10 11:07:39;;;;;;;8.90;6.03;;;26.90;64.90;;;;;;5015563;28;20447;-65
2021/07/10 11:10:09;;;;;;;7.60;6.10;;;26.30;62.40;;;;;;5020937;28;20578;-66
2021/07/10 11:12:49;;;;;;;8.32;6.03;;;26.40;61.50;;;;;;5019091;28;20022;-66
2021/07/10 11:15:32;;;;;;;16.73;10.65;;;26.50;58.60;;;;;;5014702;28;20096;-66
2021/07/10 11:17:58;;;;;;;8.32;6.55;;;26.70;58.70;;;;;;5013739;28;20026;-67
2021/07/10 11:20:44;;;;;;;8.80;5.80;;;26.50;52.80;;;;;;5013205;28;20030;-67
2021/07/10 11:23:32;;;;;;;9.00;6.70;;;25.70;56.50;;;;;;5014027;28;20109;-67
2021/07/10 11:26:02;;;;;;;40.85;30.98;;;25.90;60.00;;;;;;5008574;28;20105;-67
2021/07/10 11:28:37;;;;;;;12.02;9.02;;;25.90;60.50;;;;;;5017597;28;20105;-66
2021/07/10 11:31:07;;;;;;;8.88;6.93;;;26.10;59.30;;;;;;5014239;28;20033;-66
2021/07/10 11:33:54;;;;;;;8.73;6.32;;;26.10;58.20;;;;;;5013689;28;20476;-66
2021/07/10 11:36:38;;;;;;;8.68;6.40;;;25.90;60.70;;;;;;5012902;28;20100;-65
2021/07/10 11:39:04;;;;;;;6.97;6.28;;;26.00;63.10;;;;;;5008656;28;20030;-67
2021/07/10 11:41:31;;;;;;;10.80;6.25;;;25.60;58.10;;;;;;5016840;28;20513;-66
2021/07/10 11:44:17;;;;;;;8.73;5.95;;;25.80;58.90;;;;;;5012534;28;20174;-66
2021/07/10 11:46:59;;;;;;;7.78;5.57;;;25.60;59.20;;;;;;5015039;28;20033;-66
2021/07/10 11:49:39;;;;;;;8.63;5.82;;;25.90;60.30;;;;;;5025514;28;20472;-66
2021/07/10 11:52:09;;;;;;;10.10;6.03;;;26.10;60.00;;;;;;5019181;28;20117;-66
2021/07/10 11:54:38;;;;;;;9.93;5.97;;;26.40;59.90;;;;;;5013666;28;20056;-65
2021/07/10 11:57:05;;;;;;;22.10;9.45;;;26.50;61.70;;;;;;5009810;28;20116;-66
2021/07/10 11:59:34;;;;;;;10.20;8.02;;;27.20;60.60;;;;;;5013463;28;20049;-66
2021/07/10 12:02:21;;;;;;;58.85;19.77;;;26.60;55.20;;;;;;5010644;28;20636;-67
2021/07/10 12:04:59;;;;;;;12.30;7.97;;;27.10;55.40;;;;;;5012287;28;20525;-66
2021/07/10 12:07:25;;;;;;;10.60;5.97;;;27.10;53.40;;;;;;5011569;28;20095;-66
2021/07/10 12:09:51;;;;;;;8.60;5.50;;;27.10;51.40;;;;;;5012633;28;20037;-64
2021/07/10 12:12:16;;;;;;;23.10;11.00;;;26.80;52.40;;;;;;5011036;28;20021;-63
2021/07/10 12:14:52;;;;;;;12.98;7.18;;;27.10;53.40;;;;;;5008452;28;20378;-63
2021/07/10 12:17:18;;;;;;;9.10;5.60;;;27.30;52.80;;;;;;5008585;28;20026;-64
2021/07/10 12:19:44;;;;;;;10.98;5.32;;;27.60;53.80;;;;;;5011060;28;20040;-62
2021/07/10 12:22:09;;;;;;;10.90;5.78;;;28.00;51.60;;;;;;5007735;28;20029;-64
2021/07/10 12:24:35;;;;;;;9.70;5.57;;;27.90;49.20;;;;;;5007978;28;20649;-64
2021/07/10 12:27:10;;;;;;;7.10;5.00;;;27.70;51.30;;;;;;5011879;28;20044;-63